sensor_id;sensor_type;location;lat;lon;timestamp;temperature;humidity
76291;DHT22;65100;46.884;17.410;2023-03-01T00:01:10;4.93;66.97
76291;DHT22;65100;46.884;17.410;2023-03-01T00:03:37;5.00;67.78
76291;DHT22;65100;46.884;17.410;2023-03-01T00:06:03;5.21;67.98
76291;DHT22;65100;46.884;17.410;2023-03-01T00:08:29;5.30;68.21
76291;DHT22;65100;46.884;17.410;2023-03-01T00:11:15;5.30;68.66
76291;DHT22;65100;46.884;17.410;2023-03-01T00:13:42;5.24;69.40
76291;DHT22;65100;46.884;17.410;2023-03-01T00:16:34;5.20;69.44
76291;DHT22;65100;46.884;17.410;2023-03-01T00:19:00;5.10;69.54
76291;DHT22;65100;46.884;17.410;2023-03-01T00:21:26;5.07;69.23
76291;DHT22;65100;46.884;17.410;2023-03-01T00:23:53;5.03;67.63
76291;DHT22;65100;46.884;17.410;2023-03-01T00:26:20;4.95;68.26
76291;DHT22;65100;46.884;17.410;2023-03-01T00:28:46;5.03;67.32
76291;DHT22;65100;46.884;17.410;2023-03-01T00:31:14;5.03;68.13
76291;DHT22;65100;46.884;17.410;2023-03-01T00:33:41;5.11;67.06
76291;DHT22;65100;46.884;17.410;2023-03-01T00:36:07;5.10;66.88
76291;DHT22;65100;46.884;17.410;2023-03-01T00:38:37;5.14;67.31
76291;DHT22;65100;46.884;17.410;2023-03-01T00:41:05;5.11;68.19
76291;DHT22;65100;46.884;17.410;2023-03-01T00:43:31;5.05;67.83
76291;DHT22;65100;46.884;17.410;2023-03-01T00:46:02;5.10;68.98
76291;DHT22;65100;46.884;17.410;2023-03-01T00:48:28;5.11;69.18
76291;DHT22;65100;46.884;17.410;2023-03-01T00:50:54;5.14;69.28
76291;DHT22;65100;46.884;17.410;2023-03-01T00:53:19;5.23;69.12
76291;DHT22;65100;46.884;17.410;2023-03-01T00:55:45;5.21;68.62
76291;DHT22;65100;46.884;17.410;2023-03-01T00:58:10;5.23;68.14
76291;DHT22;65100;46.884;17.410;2023-03-01T01:00:36;5.24;67.78
76291;DHT22;65100;46.884;17.410;2023-03-01T01:03:01;5.21;68.27
76291;DHT22;65100;46.884;17.410;2023-03-01T01:05:27;5.17;67.16
76291;DHT22;65100;46.884;17.410;2023-03-01T01:07:52;5.23;67.82
76291;DHT22;65100;46.884;17.410;2023-03-01T01:10:18;5.34;67.44
76291;DHT22;65100;46.884;17.410;2023-03-01T01:12:46;5.37;67.39
76291;DHT22;65100;46.884;17.410;2023-03-01T01:15:13;5.23;67.29
76291;DHT22;65100;46.884;17.410;2023-03-01T01:17:40;5.17;67.92
76291;DHT22;65100;46.884;17.410;2023-03-01T01:20:06;5.27;66.86
76291;DHT22;65100;46.884;17.410;2023-03-01T01:22:32;5.28;67.47
76291;DHT22;65100;46.884;17.410;2023-03-01T01:24:58;5.31;67.24
76291;DHT22;65100;46.884;17.410;2023-03-01T01:27:23;5.25;67.77
76291;DHT22;65100;46.884;17.410;2023-03-01T01:29:48;5.23;66.91
76291;DHT22;65100;46.884;17.410;2023-03-01T01:32:14;5.23;66.84
76291;DHT22;65100;46.884;17.410;2023-03-01T01:34:39;5.20;66.98
76291;DHT22;65100;46.884;17.410;2023-03-01T01:37:05;5.18;67.00
76291;DHT22;65100;46.884;17.410;2023-03-01T01:39:34;5.13;66.15
76291;DHT22;65100;46.884;17.410;2023-03-01T01:42:00;5.21;68.00
76291;DHT22;65100;46.884;17.410;2023-03-01T01:44:27;5.15;67.36
76291;DHT22;65100;46.884;17.410;2023-03-01T01:46:59;5.20;67.30
76291;DHT22;65100;46.884;17.410;2023-03-01T01:49:49;5.27;67.75
76291;DHT22;65100;46.884;17.410;2023-03-01T01:52:24;5.28;68.35
76291;DHT22;65100;46.884;17.410;2023-03-01T01:55:02;5.24;67.53
76291;DHT22;65100;46.884;17.410;2023-03-01T01:57:58;5.30;67.55
76291;DHT22;65100;46.884;17.410;2023-03-01T02:00:27;5.32;66.54
76291;DHT22;65100;46.884;17.410;2023-03-01T02:03:02;5.25;65.49
76291;DHT22;65100;46.884;17.410;2023-03-01T02:05:46;5.15;64.32
76291;DHT22;65100;46.884;17.410;2023-03-01T02:08:14;5.10;64.62
76291;DHT22;65100;46.884;17.410;2023-03-01T02:10:41;5.11;64.30
76291;DHT22;65100;46.884;17.410;2023-03-01T02:13:07;4.84;64.64
76291;DHT22;65100;46.884;17.410;2023-03-01T02:15:34;4.77;64.72
76291;DHT22;65100;46.884;17.410;2023-03-01T02:18:02;4.77;64.66
76291;DHT22;65100;46.884;17.410;2023-03-01T02:23:15;4.74;67.33
76291;DHT22;65100;46.884;17.410;2023-03-01T02:26:01;4.73;66.48
76291;DHT22;65100;46.884;17.410;2023-03-01T02:28:33;4.57;66.57
76291;DHT22;65100;46.884;17.410;2023-03-01T02:31:00;4.74;66.07
76291;DHT22;65100;46.884;17.410;2023-03-01T02:33:45;4.80;67.93
76291;DHT22;65100;46.884;17.410;2023-03-01T02:36:18;4.83;66.18
76291;DHT22;65100;46.884;17.410;2023-03-01T02:38:45;4.77;66.88
76291;DHT22;65100;46.884;17.410;2023-03-01T02:41:13;4.74;67.49
76291;DHT22;65100;46.884;17.410;2023-03-01T02:43:40;4.85;68.70
76291;DHT22;65100;46.884;17.410;2023-03-01T02:46:08;4.94;67.03
76291;DHT22;65100;46.884;17.410;2023-03-01T02:48:49;4.90;67.67
76291;DHT22;65100;46.884;17.410;2023-03-01T02:56:36;4.28;69.34
76291;DHT22;65100;46.884;17.410;2023-03-01T02:59:02;4.33;69.62
76291;DHT22;65100;46.884;17.410;2023-03-01T03:01:29;4.45;69.12
76291;DHT22;65100;46.884;17.410;2023-03-01T03:04:06;4.52;68.99
76291;DHT22;65100;46.884;17.410;2023-03-01T03:06:32;4.59;68.39
76291;DHT22;65100;46.884;17.410;2023-03-01T03:08:58;4.45;68.49
76291;DHT22;65100;46.884;17.410;2023-03-01T03:11:23;4.42;70.88
76291;DHT22;65100;46.884;17.410;2023-03-01T03:13:49;4.43;69.08
76291;DHT22;65100;46.884;17.410;2023-03-01T03:16:15;4.37;69.18
76291;DHT22;65100;46.884;17.410;2023-03-01T03:18:40;4.54;68.89
76291;DHT22;65100;46.884;17.410;2023-03-01T03:21:11;4.42;68.88
76291;DHT22;65100;46.884;17.410;2023-03-01T03:23:37;4.53;69.87
76291;DHT22;65100;46.884;17.410;2023-03-01T03:26:04;4.59;69.14
76291;DHT22;65100;46.884;17.410;2023-03-01T03:28:34;4.79;69.11
76291;DHT22;65100;46.884;17.410;2023-03-01T03:31:00;4.59;68.73
76291;DHT22;65100;46.884;17.410;2023-03-01T03:33:31;4.49;68.99
76291;DHT22;65100;46.884;17.410;2023-03-01T03:35:57;4.54;68.67
76291;DHT22;65100;46.884;17.410;2023-03-01T03:38:22;4.52;68.72
76291;DHT22;65100;46.884;17.410;2023-03-01T03:40:51;4.46;69.02
76291;DHT22;65100;46.884;17.410;2023-03-01T03:43:19;4.47;68.92
76291;DHT22;65100;46.884;17.410;2023-03-01T03:45:46;4.67;69.55
76291;DHT22;65100;46.884;17.410;2023-03-01T03:48:12;4.67;69.93
76291;DHT22;65100;46.884;17.410;2023-03-01T03:50:39;4.43;69.21
76291;DHT22;65100;46.884;17.410;2023-03-01T03:53:11;4.61;69.11
76291;DHT22;65100;46.884;17.410;2023-03-01T03:55:36;4.61;70.79
76291;DHT22;65100;46.884;17.410;2023-03-01T03:58:05;4.60;69.37
76291;DHT22;65100;46.884;17.410;2023-03-01T04:00:40;4.53;69.65
76291;DHT22;65100;46.884;17.410;2023-03-01T04:03:06;4.56;69.63
76291;DHT22;65100;46.884;17.410;2023-03-01T04:05:32;4.50;69.87
76291;DHT22;65100;46.884;17.410;2023-03-01T04:07:58;4.30;71.25
76291;DHT22;65100;46.884;17.410;2023-03-01T04:10:31;4.45;71.23
76291;DHT22;65100;46.884;17.410;2023-03-01T04:12:57;4.54;70.30
76291;DHT22;65100;46.884;17.410;2023-03-01T04:15:24;4.66;71.03
76291;DHT22;65100;46.884;17.410;2023-03-01T04:17:52;4.63;70.37
76291;DHT22;65100;46.884;17.410;2023-03-01T04:20:23;4.60;71.15
76291;DHT22;65100;46.884;17.410;2023-03-01T04:23:15;4.66;70.63
76291;DHT22;65100;46.884;17.410;2023-03-01T04:28:26;4.60;71.04
76291;DHT22;65100;46.884;17.410;2023-03-01T04:30:57;4.46;71.03
76291;DHT22;65100;46.884;17.410;2023-03-01T04:33:24;4.53;71.26
76291;DHT22;65100;46.884;17.410;2023-03-01T04:35:50;4.47;71.09
76291;DHT22;65100;46.884;17.410;2023-03-01T04:38:20;4.29;71.88
76291;DHT22;65100;46.884;17.410;2023-03-01T04:40:46;4.33;71.99
76291;DHT22;65100;46.884;17.410;2023-03-01T04:43:12;4.35;72.59
76291;DHT22;65100;46.884;17.410;2023-03-01T04:45:40;4.32;71.38
76291;DHT22;65100;46.884;17.410;2023-03-01T04:48:06;4.63;70.36
76291;DHT22;65100;46.884;17.410;2023-03-01T04:50:32;4.73;70.73
76291;DHT22;65100;46.884;17.410;2023-03-01T04:52:58;4.42;72.27
76291;DHT22;65100;46.884;17.410;2023-03-01T04:55:27;4.69;70.84
76291;DHT22;65100;46.884;17.410;2023-03-01T04:57:53;4.83;70.45
76291;DHT22;65100;46.884;17.410;2023-03-01T05:00:19;4.91;70.88
76291;DHT22;65100;46.884;17.410;2023-03-01T05:03:05;4.71;71.02
76291;DHT22;65100;46.884;17.410;2023-03-01T05:05:33;4.46;71.65
76291;DHT22;65100;46.884;17.410;2023-03-01T05:08:01;4.39;71.99
76291;DHT22;65100;46.884;17.410;2023-03-01T05:10:29;4.59;71.21
76291;DHT22;65100;46.884;17.410;2023-03-01T05:12:55;4.37;72.09
76291;DHT22;65100;46.884;17.410;2023-03-01T05:15:23;4.64;70.84
76291;DHT22;65100;46.884;17.410;2023-03-01T05:17:51;4.64;71.92
76291;DHT22;65100;46.884;17.410;2023-03-01T05:20:17;4.98;70.50
76291;DHT22;65100;46.884;17.410;2023-03-01T05:22:47;4.60;71.83
76291;DHT22;65100;46.884;17.410;2023-03-01T05:25:13;4.76;71.22
76291;DHT22;65100;46.884;17.410;2023-03-01T05:27:39;4.61;72.02
76291;DHT22;65100;46.884;17.410;2023-03-01T05:30:05;4.74;73.21
76291;DHT22;65100;46.884;17.410;2023-03-01T05:32:45;4.29;74.05
76291;DHT22;65100;46.884;17.410;2023-03-01T05:35:12;4.56;72.97
76291;DHT22;65100;46.884;17.410;2023-03-01T05:37:45;4.17;75.15
76291;DHT22;65100;46.884;17.410;2023-03-01T05:40:13;4.12;75.70
76291;DHT22;65100;46.884;17.410;2023-03-01T05:42:46;4.37;75.28
76291;DHT22;65100;46.884;17.410;2023-03-01T05:45:12;4.25;76.87
76291;DHT22;65100;46.884;17.410;2023-03-01T05:47:42;4.12;76.56
76291;DHT22;65100;46.884;17.410;2023-03-01T05:50:29;4.01;78.18
76291;DHT22;65100;46.884;17.410;2023-03-01T05:52:59;3.85;78.49
76291;DHT22;65100;46.884;17.410;2023-03-01T05:55:25;4.29;77.64
76291;DHT22;65100;46.884;17.410;2023-03-01T05:57:51;4.13;77.81
76291;DHT22;65100;46.884;17.410;2023-03-01T06:00:18;4.20;78.49
76291;DHT22;65100;46.884;17.410;2023-03-01T06:02:44;4.25;77.92
76291;DHT22;65100;46.884;17.410;2023-03-01T06:05:11;4.28;78.51
76291;DHT22;65100;46.884;17.410;2023-03-01T06:07:37;3.78;80.65
76291;DHT22;65100;46.884;17.410;2023-03-01T06:10:04;4.15;79.72
76291;DHT22;65100;46.884;17.410;2023-03-01T06:12:36;4.37;78.99
76291;DHT22;65100;46.884;17.410;2023-03-01T06:15:03;4.30;79.15
76291;DHT22;65100;46.884;17.410;2023-03-01T06:17:31;3.81;81.31
76291;DHT22;65100;46.884;17.410;2023-03-01T06:19:57;3.98;80.84
76291;DHT22;65100;46.884;17.410;2023-03-01T06:22:22;3.99;80.85
76291;DHT22;65100;46.884;17.410;2023-03-01T06:24:48;4.16;80.99
76291;DHT22;65100;46.884;17.410;2023-03-01T06:27:13;4.22;80.42
76291;DHT22;65100;46.884;17.410;2023-03-01T06:29:39;4.02;80.48
76291;DHT22;65100;46.884;17.410;2023-03-01T06:32:04;4.16;80.86
76291;DHT22;65100;46.884;17.410;2023-03-01T06:34:30;4.16;80.42
76291;DHT22;65100;46.884;17.410;2023-03-01T06:36:55;3.95;81.05
76291;DHT22;65100;46.884;17.410;2023-03-01T06:39:21;3.92;81.55
76291;DHT22;65100;46.884;17.410;2023-03-01T06:41:46;4.06;81.08
76291;DHT22;65100;46.884;17.410;2023-03-01T06:44:11;3.99;81.35
76291;DHT22;65100;46.884;17.410;2023-03-01T06:46:38;4.19;80.67
76291;DHT22;65100;46.884;17.410;2023-03-01T06:49:04;4.17;80.44
76291;DHT22;65100;46.884;17.410;2023-03-01T06:51:32;4.16;81.45
76291;DHT22;65100;46.884;17.410;2023-03-01T06:53:58;3.94;81.51
76291;DHT22;65100;46.884;17.410;2023-03-01T06:56:23;4.17;82.20
76291;DHT22;65100;46.884;17.410;2023-03-01T06:58:49;4.42;82.06
76291;DHT22;65100;46.884;17.410;2023-03-01T07:01:14;4.56;81.21
76291;DHT22;65100;46.884;17.410;2023-03-01T07:03:40;4.64;81.73
76291;DHT22;65100;46.884;17.410;2023-03-01T07:06:05;4.67;80.60
76291;DHT22;65100;46.884;17.410;2023-03-01T07:08:31;4.73;80.43
76291;DHT22;65100;46.884;17.410;2023-03-01T07:10:58;4.80;79.92
76291;DHT22;65100;46.884;17.410;2023-03-01T07:13:24;4.77;80.07
76291;DHT22;65100;46.884;17.410;2023-03-01T07:15:50;4.85;80.51
76291;DHT22;65100;46.884;17.410;2023-03-01T07:18:15;4.90;80.88
76291;DHT22;65100;46.884;17.410;2023-03-01T07:20:41;4.93;80.26
76291;DHT22;65100;46.884;17.410;2023-03-01T07:23:06;4.94;79.46
76291;DHT22;65100;46.884;17.410;2023-03-01T07:25:32;4.98;79.54
76291;DHT22;65100;46.884;17.410;2023-03-01T07:27:58;4.98;79.46
76291;DHT22;65100;46.884;17.410;2023-03-01T07:30:24;5.05;79.38
76291;DHT22;65100;46.884;17.410;2023-03-01T07:32:53;4.95;79.59
76291;DHT22;65100;46.884;17.410;2023-03-01T07:35:18;4.98;79.88
76291;DHT22;65100;46.884;17.410;2023-03-01T07:37:44;5.01;80.07
76291;DHT22;65100;46.884;17.410;2023-03-01T07:40:10;5.04;79.82
76291;DHT22;65100;46.884;17.410;2023-03-01T07:42:36;5.07;80.12
76291;DHT22;65100;46.884;17.410;2023-03-01T07:45:02;5.08;79.75
76291;DHT22;65100;46.884;17.410;2023-03-01T07:47:27;5.15;79.61
76291;DHT22;65100;46.884;17.410;2023-03-01T07:49:53;5.20;79.46
76291;DHT22;65100;46.884;17.410;2023-03-01T07:52:18;5.20;79.49
76291;DHT22;65100;46.884;17.410;2023-03-01T07:54:44;5.20;79.58
76291;DHT22;65100;46.884;17.410;2023-03-01T07:57:10;5.15;80.29
76291;DHT22;65100;46.884;17.410;2023-03-01T07:59:36;5.23;80.23
76291;DHT22;65100;46.884;17.410;2023-03-01T08:02:01;5.20;80.69
76291;DHT22;65100;46.884;17.410;2023-03-01T08:04:27;5.20;80.08
76291;DHT22;65100;46.884;17.410;2023-03-01T08:07:13;5.18;80.43
76291;DHT22;65100;46.884;17.410;2023-03-01T08:09:38;5.17;81.19
76291;DHT22;65100;46.884;17.410;2023-03-01T08:12:24;5.21;80.12
76291;DHT22;65100;46.884;17.410;2023-03-01T08:14:52;5.15;79.96
76291;DHT22;65100;46.884;17.410;2023-03-01T08:17:18;5.21;81.57
76291;DHT22;65100;46.884;17.410;2023-03-01T08:19:43;5.17;81.64
76291;DHT22;65100;46.884;17.410;2023-03-01T08:22:09;5.24;80.74
76291;DHT22;65100;46.884;17.410;2023-03-01T08:24:35;5.24;81.94
76291;DHT22;65100;46.884;17.410;2023-03-01T08:27:00;5.18;80.97
76291;DHT22;65100;46.884;17.410;2023-03-01T08:29:28;5.18;80.84
76291;DHT22;65100;46.884;17.410;2023-03-01T08:31:55;5.15;80.77
76291;DHT22;65100;46.884;17.410;2023-03-01T08:34:20;5.17;81.79
76291;DHT22;65100;46.884;17.410;2023-03-01T08:36:46;5.23;81.59
76291;DHT22;65100;46.884;17.410;2023-03-01T08:39:14;5.20;81.03
76291;DHT22;65100;46.884;17.410;2023-03-01T08:41:40;5.27;82.02
76291;DHT22;65100;46.884;17.410;2023-03-01T08:44:06;5.32;81.80
76291;DHT22;65100;46.884;17.410;2023-03-01T08:46:34;5.47;82.64
76291;DHT22;65100;46.884;17.410;2023-03-01T08:49:04;5.56;82.94
76291;DHT22;65100;46.884;17.410;2023-03-01T08:51:30;5.69;83.36
76291;DHT22;65100;46.884;17.410;2023-03-01T08:53:57;5.85;83.78
76291;DHT22;65100;46.884;17.410;2023-03-01T08:56:23;5.78;81.91
76291;DHT22;65100;46.884;17.410;2023-03-01T08:58:48;5.72;80.97
76291;DHT22;65100;46.884;17.410;2023-03-01T09:01:18;5.69;80.88
76291;DHT22;65100;46.884;17.410;2023-03-01T09:03:44;5.75;81.62
76291;DHT22;65100;46.884;17.410;2023-03-01T09:06:10;5.72;80.75
76291;DHT22;65100;46.884;17.410;2023-03-01T09:08:38;5.76;81.37
76291;DHT22;65100;46.884;17.410;2023-03-01T09:11:05;5.75;81.69
76291;DHT22;65100;46.884;17.410;2023-03-01T09:13:31;5.79;82.02
76291;DHT22;65100;46.884;17.410;2023-03-01T09:15:58;5.85;82.14
76291;DHT22;65100;46.884;17.410;2023-03-01T09:18:23;5.83;81.97
76291;DHT22;65100;46.884;17.410;2023-03-01T09:20:49;5.76;80.63
76291;DHT22;65100;46.884;17.410;2023-03-01T09:23:14;5.93;82.52
76291;DHT22;65100;46.884;17.410;2023-03-01T09:25:40;5.96;82.54
76291;DHT22;65100;46.884;17.410;2023-03-01T09:28:05;6.17;81.91
76291;DHT22;65100;46.884;17.410;2023-03-01T09:30:31;6.15;80.31
76291;DHT22;65100;46.884;17.410;2023-03-01T09:32:57;6.15;80.74
76291;DHT22;65100;46.884;17.410;2023-03-01T09:35:22;6.15;80.95
76291;DHT22;65100;46.884;17.410;2023-03-01T09:37:49;6.12;80.75
76291;DHT22;65100;46.884;17.410;2023-03-01T09:40:20;6.36;81.66
76291;DHT22;65100;46.884;17.410;2023-03-01T09:43:53;6.50;80.51
76291;DHT22;65100;46.884;17.410;2023-03-01T09:46:03;6.37;80.61
76291;DHT22;65100;46.884;17.410;2023-03-01T09:48:36;6.40;81.68
76291;DHT22;65100;46.884;17.410;2023-03-01T09:51:08;6.34;79.81
76291;DHT22;65100;46.884;17.410;2023-03-01T09:53:34;6.26;80.45
76291;DHT22;65100;46.884;17.410;2023-03-01T09:58:53;6.22;81.48
76291;DHT22;65100;46.884;17.410;2023-03-01T10:01:29;6.27;81.29
76291;DHT22;65100;46.884;17.410;2023-03-01T10:04:27;6.25;81.10
76291;DHT22;65100;46.884;17.410;2023-03-01T10:09:38;6.33;81.68
76291;DHT22;65100;46.884;17.410;2023-03-01T10:12:09;6.41;81.30
76291;DHT22;65100;46.884;17.410;2023-03-01T10:14:39;6.41;80.37
76291;DHT22;65100;46.884;17.410;2023-03-01T10:17:24;6.36;80.83
76291;DHT22;65100;46.884;17.410;2023-03-01T10:19:51;6.29;80.10
76291;DHT22;65100;46.884;17.410;2023-03-01T10:22:24;6.06;81.07
76291;DHT22;65100;46.884;17.410;2023-03-01T10:24:54;6.13;81.37
76291;DHT22;65100;46.884;17.410;2023-03-01T10:27:25;5.96;81.16
76291;DHT22;65100;46.884;17.410;2023-03-01T10:32:36;5.42;84.79
76291;DHT22;65100;46.884;17.410;2023-03-01T10:35:16;5.68;84.77
76291;DHT22;65100;46.884;17.410;2023-03-01T10:40:27;6.51;81.21
76291;DHT22;65100;46.884;17.410;2023-03-01T10:42:53;6.57;81.23
76291;DHT22;65100;46.884;17.410;2023-03-01T10:45:35;6.76;83.98
76291;DHT22;65100;46.884;17.410;2023-03-01T10:48:17;6.36;81.22
76291;DHT22;65100;46.884;17.410;2023-03-01T10:50:50;6.63;80.73
76291;DHT22;65100;46.884;17.410;2023-03-01T10:53:41;6.79;79.53
76291;DHT22;65100;46.884;17.410;2023-03-01T10:56:08;6.44;81.17
76291;DHT22;65100;46.884;17.410;2023-03-01T10:58:36;6.44;80.06
76291;DHT22;65100;46.884;17.410;2023-03-01T11:01:24;6.61;79.77
76291;DHT22;65100;46.884;17.410;2023-03-01T11:06:30;6.63;79.71
76291;DHT22;65100;46.884;17.410;2023-03-01T11:08:55;7.04;79.17
76291;DHT22;65100;46.884;17.410;2023-03-01T11:11:31;6.44;79.78
76291;DHT22;65100;46.884;17.410;2023-03-01T11:14:01;6.39;81.30
76291;DHT22;65100;46.884;17.410;2023-03-01T11:16:32;6.67;80.89
76291;DHT22;65100;46.884;17.410;2023-03-01T11:19:14;7.04;78.54
76291;DHT22;65100;46.884;17.410;2023-03-01T11:24:13;6.74;78.78
76291;DHT22;65100;46.884;17.410;2023-03-01T11:26:42;6.69;78.89
76291;DHT22;65100;46.884;17.410;2023-03-01T11:29:18;7.14;78.19
76291;DHT22;65100;46.884;17.410;2023-03-01T11:31:47;7.66;80.55
76291;DHT22;65100;46.884;17.410;2023-03-01T11:37:04;7.63;74.88
76291;DHT22;65100;46.884;17.410;2023-03-01T11:39:41;7.51;75.77
76291;DHT22;65100;46.884;17.410;2023-03-01T11:42:18;7.69;76.78
76291;DHT22;65100;46.884;17.410;2023-03-01T11:44:48;7.75;77.30
76291;DHT22;65100;46.884;17.410;2023-03-01T11:47:21;7.94;76.64
76291;DHT22;65100;46.884;17.410;2023-03-01T12:14:50;8.64;72.17
76291;DHT22;65100;46.884;17.410;2023-03-01T12:22:42;8.89;73.44
76291;DHT22;65100;46.884;17.410;2023-03-01T12:28:33;8.91;73.99
76291;DHT22;65100;46.884;17.410;2023-03-01T12:51:23;8.64;73.10
76291;DHT22;65100;46.884;17.410;2023-03-01T12:53:51;9.02;73.06
76291;DHT22;65100;46.884;17.410;2023-03-01T12:56:25;9.01;72.09
76291;DHT22;65100;46.884;17.410;2023-03-01T13:17:54;8.92;72.26
76291;DHT22;65100;46.884;17.410;2023-03-01T13:20:23;8.80;71.86
76291;DHT22;65100;46.884;17.410;2023-03-01T13:23:47;8.70;72.12
76291;DHT22;65100;46.884;17.410;2023-03-01T13:31:00;8.78;72.48
76291;DHT22;65100;46.884;17.410;2023-03-01T13:35:51;8.85;72.81
76291;DHT22;65100;46.884;17.410;2023-03-01T13:38:36;8.74;71.88
76291;DHT22;65100;46.884;17.410;2023-03-01T13:41:02;8.81;72.55
76291;DHT22;65100;46.884;17.410;2023-03-01T13:43:31;8.80;72.47
76291;DHT22;65100;46.884;17.410;2023-03-01T13:45:58;8.75;71.68
76291;DHT22;65100;46.884;17.410;2023-03-01T13:48:29;8.78;71.89
76291;DHT22;65100;46.884;17.410;2023-03-01T13:51:01;8.84;72.42
76291;DHT22;65100;46.884;17.410;2023-03-01T13:53:33;8.80;72.68
76291;DHT22;65100;46.884;17.410;2023-03-01T13:56:02;8.81;72.54
76291;DHT22;65100;46.884;17.410;2023-03-01T13:58:31;8.84;72.24
76291;DHT22;65100;46.884;17.410;2023-03-01T14:01:03;8.84;72.43
76291;DHT22;65100;46.884;17.410;2023-03-01T14:03:31;8.74;72.75
76291;DHT22;65100;46.884;17.410;2023-03-01T14:08:29;8.72;72.14
76291;DHT22;65100;46.884;17.410;2023-03-01T14:21:44;8.74;72.05
76291;DHT22;65100;46.884;17.410;2023-03-01T14:24:22;8.70;72.52
76291;DHT22;65100;46.884;17.410;2023-03-01T14:26:49;8.75;72.86
76291;DHT22;65100;46.884;17.410;2023-03-01T14:29:36;8.72;73.23
76291;DHT22;65100;46.884;17.410;2023-03-01T14:32:29;8.71;75.09
76291;DHT22;65100;46.884;17.410;2023-03-01T14:34:57;8.56;73.67
76291;DHT22;65100;46.884;17.410;2023-03-01T14:37:28;8.63;73.74
76291;DHT22;65100;46.884;17.410;2023-03-01T14:39:57;8.56;72.10
76291;DHT22;65100;46.884;17.410;2023-03-01T14:42:26;8.57;73.84
76291;DHT22;65100;46.884;17.410;2023-03-01T14:44:54;8.54;73.97
76291;DHT22;65100;46.884;17.410;2023-03-01T14:47:32;8.57;72.60
76291;DHT22;65100;46.884;17.410;2023-03-01T14:50:30;8.54;72.91
76291;DHT22;65100;46.884;17.410;2023-03-01T14:52:58;8.56;73.67
76291;DHT22;65100;46.884;17.410;2023-03-01T14:55:37;8.54;73.82
76291;DHT22;65100;46.884;17.410;2023-03-01T14:58:10;8.56;73.90
76291;DHT22;65100;46.884;17.410;2023-03-01T15:00:37;8.51;73.59
76291;DHT22;65100;46.884;17.410;2023-03-01T15:03:08;8.53;74.36
76291;DHT22;65100;46.884;17.410;2023-03-01T15:05:39;8.60;74.20
76291;DHT22;65100;46.884;17.410;2023-03-01T15:08:05;8.58;74.31
76291;DHT22;65100;46.884;17.410;2023-03-01T15:10:34;8.47;73.46
76291;DHT22;65100;46.884;17.410;2023-03-01T15:13:14;8.47;72.79
76291;DHT22;65100;46.884;17.410;2023-03-01T15:15:44;8.53;74.03
76291;DHT22;65100;46.884;17.410;2023-03-01T15:18:25;8.48;73.85
76291;DHT22;65100;46.884;17.410;2023-03-01T15:20:51;8.47;73.42
76291;DHT22;65100;46.884;17.410;2023-03-01T15:23:26;8.48;74.01
76291;DHT22;65100;46.884;17.410;2023-03-01T15:25:53;8.50;73.88
76291;DHT22;65100;46.884;17.410;2023-03-01T15:28:31;8.46;73.41
76291;DHT22;65100;46.884;17.410;2023-03-01T15:31:22;8.43;73.60
76291;DHT22;65100;46.884;17.410;2023-03-01T15:33:48;8.38;73.02
76291;DHT22;65100;46.884;17.410;2023-03-01T15:36:39;8.37;73.28
76291;DHT22;65100;46.884;17.410;2023-03-01T15:39:33;8.29;73.96
76291;DHT22;65100;46.884;17.410;2023-03-01T15:42:17;8.27;73.58
76291;DHT22;65100;46.884;17.410;2023-03-01T15:47:53;8.25;74.39
76291;DHT22;65100;46.884;17.410;2023-03-01T15:50:37;8.26;74.17
76291;DHT22;65100;46.884;17.410;2023-03-01T15:53:09;8.25;73.95
76291;DHT22;65100;46.884;17.410;2023-03-01T15:55:36;8.19;74.22
76291;DHT22;65100;46.884;17.410;2023-03-01T15:58:18;8.20;73.60
76291;DHT22;65100;46.884;17.410;2023-03-01T16:00:45;8.20;72.91
76291;DHT22;65100;46.884;17.410;2023-03-01T16:03:11;8.19;72.62
76291;DHT22;65100;46.884;17.410;2023-03-01T16:05:38;8.14;72.33
76291;DHT22;65100;46.884;17.410;2023-03-01T16:08:05;8.07;72.67
76291;DHT22;65100;46.884;17.410;2023-03-01T16:10:31;8.00;72.25
76291;DHT22;65100;46.884;17.410;2023-03-01T16:12:57;8.02;72.74
76291;DHT22;65100;46.884;17.410;2023-03-01T16:17:50;8.02;72.55
76291;DHT22;65100;46.884;17.410;2023-03-01T16:20:16;7.99;71.63
76291;DHT22;65100;46.884;17.410;2023-03-01T16:22:42;7.99;72.62
76291;DHT22;65100;46.884;17.410;2023-03-01T16:25:13;8.02;72.95
76291;DHT22;65100;46.884;17.410;2023-03-01T16:27:42;8.04;72.71
76291;DHT22;65100;46.884;17.410;2023-03-01T16:30:08;8.04;72.35
76291;DHT22;65100;46.884;17.410;2023-03-01T16:32:40;8.00;72.41
76291;DHT22;65100;46.884;17.410;2023-03-01T16:35:08;8.06;72.77
76291;DHT22;65100;46.884;17.410;2023-03-01T16:37:35;7.97;71.87
76291;DHT22;65100;46.884;17.410;2023-03-01T16:40:00;7.94;71.60
76291;DHT22;65100;46.884;17.410;2023-03-01T16:42:26;7.94;71.86
76291;DHT22;65100;46.884;17.410;2023-03-01T16:44:55;7.86;71.59
76291;DHT22;65100;46.884;17.410;2023-03-01T16:47:21;7.83;71.63
76291;DHT22;65100;46.884;17.410;2023-03-01T16:49:47;7.82;71.58
76291;DHT22;65100;46.884;17.410;2023-03-01T16:52:12;7.83;70.97
76291;DHT22;65100;46.884;17.410;2023-03-01T16:54:38;7.82;71.21
76291;DHT22;65100;46.884;17.410;2023-03-01T16:57:04;7.82;71.90
76291;DHT22;65100;46.884;17.410;2023-03-01T16:59:30;7.85;71.78
76291;DHT22;65100;46.884;17.410;2023-03-01T17:01:55;8.02;71.82
76291;DHT22;65100;46.884;17.410;2023-03-01T17:04:21;8.04;72.53
76291;DHT22;65100;46.884;17.410;2023-03-01T17:06:46;8.07;73.06
76291;DHT22;65100;46.884;17.410;2023-03-01T17:09:13;8.02;72.32
76291;DHT22;65100;46.884;17.410;2023-03-01T17:11:40;7.93;71.44
76291;DHT22;65100;46.884;17.410;2023-03-01T17:14:05;8.02;72.48
76291;DHT22;65100;46.884;17.410;2023-03-01T17:16:31;7.94;71.73
76291;DHT22;65100;46.884;17.410;2023-03-01T17:18:57;7.96;71.88
76291;DHT22;65100;46.884;17.410;2023-03-01T17:21:22;7.89;72.10
76291;DHT22;65100;46.884;17.410;2023-03-01T17:23:48;7.89;72.82
76291;DHT22;65100;46.884;17.410;2023-03-01T17:26:15;7.93;71.77
76291;DHT22;65100;46.884;17.410;2023-03-01T17:28:40;7.69;72.89
76291;DHT22;65100;46.884;17.410;2023-03-01T17:31:08;7.34;73.39
76291;DHT22;65100;46.884;17.410;2023-03-01T17:33:33;7.14;74.20
76291;DHT22;65100;46.884;17.410;2023-03-01T17:35:59;7.08;74.97
76291;DHT22;65100;46.884;17.410;2023-03-01T17:38:25;7.18;75.16
76291;DHT22;65100;46.884;17.410;2023-03-01T17:40:51;7.21;74.69
76291;DHT22;65100;46.884;17.410;2023-03-01T17:43:17;7.32;74.54
76291;DHT22;65100;46.884;17.410;2023-03-01T17:45:43;7.79;73.19
76291;DHT22;65100;46.884;17.410;2023-03-01T17:48:13;8.12;70.58
76291;DHT22;65100;46.884;17.410;2023-03-01T17:50:39;8.17;68.92
76291;DHT22;65100;46.884;17.410;2023-03-01T17:53:06;8.19;68.82